sensor_id;sensor_type;location;lat;lon;timestamp;P1;durP1;ratioP1;P2;durP2;ratioP2
59972;SDS011;55298;-36.624;-64.282;2023-03-14T00:01:48;4.53;;;3.72;;
59972;SDS011;55298;-36.624;-64.282;2023-03-14T00:04:16;4.30;;;3.60;;
59972;SDS011;55298;-36.624;-64.282;2023-03-14T00:06:44;6.63;;;4.22;;
59972;SDS011;55298;-36.624;-64.282;2023-03-14T00:09:13;7.50;;;5.57;;
59972;SDS011;55298;-36.624;-64.282;2023-03-14T00:11:44;6.35;;;4.15;;
59972;SDS011;55298;-36.624;-64.282;2023-03-14T00:14:12;4.63;;;3.70;;
59972;SDS011;55298;-36.624;-64.282;2023-03-14T00:16:45;3.40;;;3.10;;
59972;SDS011;55298;-36.624;-64.282;2023-03-14T00:19:13;4.85;;;3.45;;
59972;SDS011;55298;-36.624;-64.282;2023-03-14T00:21:41;3.67;;;3.38;;
59972;SDS011;55298;-36.624;-64.282;2023-03-14T00:24:08;12.43;;;8.43;;
59972;SDS011;55298;-36.624;-64.282;2023-03-14T00:26:36;6.07;;;5.10;;
59972;SDS011;55298;-36.624;-64.282;2023-03-14T00:29:04;4.50;;;4.10;;
59972;SDS011;55298;-36.624;-64.282;2023-03-14T00:31:32;7.45;;;4.63;;
59972;SDS011;55298;-36.624;-64.282;2023-03-14T00:34:01;6.78;;;5.45;;
59972;SDS011;55298;-36.624;-64.282;2023-03-14T00:36:29;9.32;;;6.40;;
59972;SDS011;55298;-36.624;-64.282;2023-03-14T00:38:57;9.70;;;6.97;;
59972;SDS011;55298;-36.624;-64.282;2023-03-14T00:41:24;12.45;;;9.23;;
59972;SDS011;55298;-36.624;-64.282;2023-03-14T00:43:52;9.65;;;8.05;;
59972;SDS011;55298;-36.624;-64.282;2023-03-14T00:46:19;9.57;;;7.00;;
59972;SDS011;55298;-36.624;-64.282;2023-03-14T00:48:48;10.63;;;9.00;;
59972;SDS011;55298;-36.624;-64.282;2023-03-14T00:51:15;12.27;;;9.65;;
59972;SDS011;55298;-36.624;-64.282;2023-03-14T00:53:44;7.38;;;6.50;;
59972;SDS011;55298;-36.624;-64.282;2023-03-14T00:56:12;9.07;;;6.28;;
59972;SDS011;55298;-36.624;-64.282;2023-03-14T00:58:40;11.60;;;9.38;;
59972;SDS011;55298;-36.624;-64.282;2023-03-14T01:01:08;5.93;;;5.32;;
59972;SDS011;55298;-36.624;-64.282;2023-03-14T01:03:40;5.75;;;5.13;;
59972;SDS011;55298;-36.624;-64.282;2023-03-14T01:06:09;6.18;;;5.53;;
59972;SDS011;55298;-36.624;-64.282;2023-03-14T01:08:43;13.95;;;8.50;;
59972;SDS011;55298;-36.624;-64.282;2023-03-14T01:11:13;7.70;;;6.60;;
59972;SDS011;55298;-36.624;-64.282;2023-03-14T01:13:44;10.52;;;6.13;;
59972;SDS011;55298;-36.624;-64.282;2023-03-14T01:16:13;8.15;;;6.68;;
59972;SDS011;55298;-36.624;-64.282;2023-03-14T01:18:42;10.63;;;7.60;;
59972;SDS011;55298;-36.624;-64.282;2023-03-14T01:21:12;7.10;;;6.40;;
59972;SDS011;55298;-36.624;-64.282;2023-03-14T01:26:13;7.70;;;6.88;;
59972;SDS011;55298;-36.624;-64.282;2023-03-14T01:28:44;7.20;;;5.88;;
59972;SDS011;55298;-36.624;-64.282;2023-03-14T01:31:14;6.85;;;6.05;;
59972;SDS011;55298;-36.624;-64.282;2023-03-14T01:33:42;7.63;;;6.18;;
59972;SDS011;55298;-36.624;-64.282;2023-03-14T01:36:11;6.53;;;5.80;;
59972;SDS011;55298;-36.624;-64.282;2023-03-14T01:38:40;6.05;;;5.55;;
59972;SDS011;55298;-36.624;-64.282;2023-03-14T01:41:12;6.00;;;5.47;;
59972;SDS011;55298;-36.624;-64.282;2023-03-14T01:43:42;5.13;;;4.70;;
59972;SDS011;55298;-36.624;-64.282;2023-03-14T01:46:25;5.03;;;4.63;;
59972;SDS011;55298;-36.624;-64.282;2023-03-14T01:51:44;4.75;;;3.63;;
59972;SDS011;55298;-36.624;-64.282;2023-03-14T01:54:24;4.05;;;3.60;;
59972;SDS011;55298;-36.624;-64.282;2023-03-14T01:57:11;4.10;;;3.80;;
59972;SDS011;55298;-36.624;-64.282;2023-03-14T01:59:47;5.70;;;4.70;;
59972;SDS011;55298;-36.624;-64.282;2023-03-14T02:02:20;5.60;;;5.10;;
59972;SDS011;55298;-36.624;-64.282;2023-03-14T02:04:50;5.20;;;4.70;;
59972;SDS011;55298;-36.624;-64.282;2023-03-14T02:07:27;11.07;;;5.90;;
59972;SDS011;55298;-36.624;-64.282;2023-03-14T02:10:08;5.32;;;4.82;;
59972;SDS011;55298;-36.624;-64.282;2023-03-14T02:12:36;6.13;;;5.53;;
59972;SDS011;55298;-36.624;-64.282;2023-03-14T02:15:05;7.85;;;6.22;;
59972;SDS011;55298;-36.624;-64.282;2023-03-14T02:17:34;6.95;;;6.25;;
59972;SDS011;55298;-36.624;-64.282;2023-03-14T02:20:07;6.93;;;4.80;;
59972;SDS011;55298;-36.624;-64.282;2023-03-14T02:22:44;5.53;;;5.03;;
59972;SDS011;55298;-36.624;-64.282;2023-03-14T02:25:23;5.30;;;4.80;;
59972;SDS011;55298;-36.624;-64.282;2023-03-14T02:28:00;6.68;;;4.95;;
59972;SDS011;55298;-36.624;-64.282;2023-03-14T02:30:29;4.68;;;4.28;;
59972;SDS011;55298;-36.624;-64.282;2023-03-14T02:32:59;4.68;;;4.20;;
59972;SDS011;55298;-36.624;-64.282;2023-03-14T02:36:11;4.75;;;4.13;;
59972;SDS011;55298;-36.624;-64.282;2023-03-14T02:38:29;4.03;;;3.63;;
59972;SDS011;55298;-36.624;-64.282;2023-03-14T02:41:06;3.90;;;3.60;;
59972;SDS011;55298;-36.624;-64.282;2023-03-14T02:43:35;4.07;;;3.78;;
59972;SDS011;55298;-36.624;-64.282;2023-03-14T02:46:03;3.90;;;3.60;;
59972;SDS011;55298;-36.624;-64.282;2023-03-14T02:48:42;4.53;;;4.20;;
59972;SDS011;55298;-36.624;-64.282;2023-03-14T02:51:23;4.20;;;3.90;;
59972;SDS011;55298;-36.624;-64.282;2023-03-14T02:53:52;5.47;;;4.70;;
59972;SDS011;55298;-36.624;-64.282;2023-03-14T02:56:20;6.32;;;4.20;;
59972;SDS011;55298;-36.624;-64.282;2023-03-14T02:58:48;3.90;;;3.67;;
59972;SDS011;55298;-36.624;-64.282;2023-03-14T03:01:16;4.80;;;4.50;;
59972;SDS011;55298;-36.624;-64.282;2023-03-14T03:03:44;5.55;;;5.10;;
59972;SDS011;55298;-36.624;-64.282;2023-03-14T03:06:11;5.30;;;4.90;;
59972;SDS011;55298;-36.624;-64.282;2023-03-14T03:08:39;4.90;;;4.40;;
59972;SDS011;55298;-36.624;-64.282;2023-03-14T03:11:07;5.45;;;3.97;;
59972;SDS011;55298;-36.624;-64.282;2023-03-14T03:13:34;3.90;;;3.60;;
59972;SDS011;55298;-36.624;-64.282;2023-03-14T03:16:02;4.90;;;4.50;;
59972;SDS011;55298;-36.624;-64.282;2023-03-14T03:18:30;3.97;;;3.60;;
59972;SDS011;55298;-36.624;-64.282;2023-03-14T03:21:02;3.97;;;3.70;;
59972;SDS011;55298;-36.624;-64.282;2023-03-14T03:23:31;3.95;;;3.70;;
59972;SDS011;55298;-36.624;-64.282;2023-03-14T03:25:59;3.72;;;3.42;;
59972;SDS011;55298;-36.624;-64.282;2023-03-14T03:28:27;4.88;;;3.35;;
59972;SDS011;55298;-36.624;-64.282;2023-03-14T03:30:55;4.57;;;4.18;;
59972;SDS011;55298;-36.624;-64.282;2023-03-14T03:33:24;3.97;;;3.60;;
59972;SDS011;55298;-36.624;-64.282;2023-03-14T03:35:52;3.85;;;3.55;;
59972;SDS011;55298;-36.624;-64.282;2023-03-14T03:38:19;3.40;;;2.92;;
59972;SDS011;55298;-36.624;-64.282;2023-03-14T03:40:47;3.30;;;3.00;;
59972;SDS011;55298;-36.624;-64.282;2023-03-14T03:43:15;3.30;;;3.10;;
59972;SDS011;55298;-36.624;-64.282;2023-03-14T03:45:43;6.93;;;3.50;;
59972;SDS011;55298;-36.624;-64.282;2023-03-14T03:48:11;3.05;;;2.75;;
59972;SDS011;55298;-36.624;-64.282;2023-03-14T03:50:46;8.52;;;3.40;;
59972;SDS011;55298;-36.624;-64.282;2023-03-14T03:53:14;3.80;;;3.40;;
59972;SDS011;55298;-36.624;-64.282;2023-03-14T03:55:42;3.85;;;3.30;;
59972;SDS011;55298;-36.624;-64.282;2023-03-14T03:58:10;3.67;;;3.38;;
59972;SDS011;55298;-36.624;-64.282;2023-03-14T04:00:37;3.97;;;3.42;;
59972;SDS011;55298;-36.624;-64.282;2023-03-14T04:03:06;3.17;;;2.90;;
59972;SDS011;55298;-36.624;-64.282;2023-03-14T04:05:33;3.33;;;3.13;;
59972;SDS011;55298;-36.624;-64.282;2023-03-14T04:08:01;5.40;;;3.55;;
59972;SDS011;55298;-36.624;-64.282;2023-03-14T04:10:33;3.05;;;2.85;;
59972;SDS011;55298;-36.624;-64.282;2023-03-14T04:13:01;4.00;;;3.70;;
59972;SDS011;55298;-36.624;-64.282;2023-03-14T04:15:29;4.20;;;3.90;;
59972;SDS011;55298;-36.624;-64.282;2023-03-14T04:17:57;7.45;;;4.10;;
59972;SDS011;55298;-36.624;-64.282;2023-03-14T04:20:25;4.35;;;3.60;;
59972;SDS011;55298;-36.624;-64.282;2023-03-14T04:22:53;3.70;;;3.40;;
59972;SDS011;55298;-36.624;-64.282;2023-03-14T04:25:21;3.72;;;3.42;;
59972;SDS011;55298;-36.624;-64.282;2023-03-14T04:27:48;5.75;;;4.15;;
59972;SDS011;55298;-36.624;-64.282;2023-03-14T04:30:16;8.02;;;4.50;;
59972;SDS011;55298;-36.624;-64.282;2023-03-14T04:32:43;5.35;;;4.68;;
59972;SDS011;55298;-36.624;-64.282;2023-03-14T04:35:11;5.53;;;4.72;;
59972;SDS011;55298;-36.624;-64.282;2023-03-14T04:37:39;5.45;;;4.00;;
59972;SDS011;55298;-36.624;-64.282;2023-03-14T04:40:09;4.43;;;4.15;;
59972;SDS011;55298;-36.624;-64.282;2023-03-14T04:42:38;8.00;;;4.18;;
59972;SDS011;55298;-36.624;-64.282;2023-03-14T04:45:06;5.35;;;4.95;;
59972;SDS011;55298;-36.624;-64.282;2023-03-14T04:47:35;4.43;;;4.13;;
59972;SDS011;55298;-36.624;-64.282;2023-03-14T04:50:03;4.45;;;4.15;;
59972;SDS011;55298;-36.624;-64.282;2023-03-14T04:52:31;4.53;;;4.15;;
59972;SDS011;55298;-36.624;-64.282;2023-03-14T04:54:58;3.90;;;3.70;;
59972;SDS011;55298;-36.624;-64.282;2023-03-14T04:57:26;4.13;;;3.80;;
59972;SDS011;55298;-36.624;-64.282;2023-03-14T04:59:54;5.45;;;4.60;;
59972;SDS011;55298;-36.624;-64.282;2023-03-14T05:02:21;5.50;;;5.00;;
59972;SDS011;55298;-36.624;-64.282;2023-03-14T05:04:49;5.00;;;4.60;;
59972;SDS011;55298;-36.624;-64.282;2023-03-14T05:07:17;4.97;;;4.50;;
59972;SDS011;55298;-36.624;-64.282;2023-03-14T05:09:44;12.85;;;5.50;;
59972;SDS011;55298;-36.624;-64.282;2023-03-14T05:12:12;6.65;;;4.82;;
59972;SDS011;55298;-36.624;-64.282;2023-03-14T05:14:40;4.65;;;3.85;;
59972;SDS011;55298;-36.624;-64.282;2023-03-14T05:17:08;3.88;;;3.58;;
59972;SDS011;55298;-36.624;-64.282;2023-03-14T05:19:36;4.53;;;4.20;;
59972;SDS011;55298;-36.624;-64.282;2023-03-14T05:22:03;7.10;;;5.32;;
59972;SDS011;55298;-36.624;-64.282;2023-03-14T05:24:31;5.90;;;4.75;;
59972;SDS011;55298;-36.624;-64.282;2023-03-14T05:26:59;4.13;;;3.72;;
59972;SDS011;55298;-36.624;-64.282;2023-03-14T05:29:27;5.35;;;4.28;;
59972;SDS011;55298;-36.624;-64.282;2023-03-14T05:31:54;4.47;;;4.07;;
59972;SDS011;55298;-36.624;-64.282;2023-03-14T05:34:22;3.50;;;3.30;;
59972;SDS011;55298;-36.624;-64.282;2023-03-14T05:36:50;4.43;;;3.53;;
59972;SDS011;55298;-36.624;-64.282;2023-03-14T05:39:17;4.30;;;4.00;;
59972;SDS011;55298;-36.624;-64.282;2023-03-14T05:41:45;3.20;;;3.00;;
59972;SDS011;55298;-36.624;-64.282;2023-03-14T05:44:13;3.85;;;3.50;;
59972;SDS011;55298;-36.624;-64.282;2023-03-14T05:46:40;4.30;;;3.90;;
59972;SDS011;55298;-36.624;-64.282;2023-03-14T05:49:08;4.57;;;4.18;;
59972;SDS011;55298;-36.624;-64.282;2023-03-14T05:51:36;3.80;;;3.50;;
59972;SDS011;55298;-36.624;-64.282;2023-03-14T05:54:03;3.80;;;3.33;;
59972;SDS011;55298;-36.624;-64.282;2023-03-14T05:56:32;4.95;;;4.60;;
59972;SDS011;55298;-36.624;-64.282;2023-03-14T05:58:59;5.00;;;4.55;;
59972;SDS011;55298;-36.624;-64.282;2023-03-14T06:01:29;4.07;;;3.67;;
59972;SDS011;55298;-36.624;-64.282;2023-03-14T06:03:57;5.18;;;3.90;;
59972;SDS011;55298;-36.624;-64.282;2023-03-14T06:06:24;4.90;;;4.50;;
59972;SDS011;55298;-36.624;-64.282;2023-03-14T06:08:52;5.82;;;4.60;;
59972;SDS011;55298;-36.624;-64.282;2023-03-14T06:11:20;5.35;;;4.85;;
59972;SDS011;55298;-36.624;-64.282;2023-03-14T06:13:48;5.03;;;4.63;;
59972;SDS011;55298;-36.624;-64.282;2023-03-14T06:16:16;5.32;;;4.82;;
59972;SDS011;55298;-36.624;-64.282;2023-03-14T06:18:44;5.38;;;4.88;;
59972;SDS011;55298;-36.624;-64.282;2023-03-14T06:21:14;5.10;;;4.70;;
59972;SDS011;55298;-36.624;-64.282;2023-03-14T06:23:42;4.93;;;4.53;;
59972;SDS011;55298;-36.624;-64.282;2023-03-14T06:26:10;4.78;;;4.47;;
59972;SDS011;55298;-36.624;-64.282;2023-03-14T06:28:38;4.97;;;4.50;;
59972;SDS011;55298;-36.624;-64.282;2023-03-14T06:31:05;5.32;;;4.82;;
59972;SDS011;55298;-36.624;-64.282;2023-03-14T06:33:33;4.03;;;3.72;;
59972;SDS011;55298;-36.624;-64.282;2023-03-14T06:36:01;4.75;;;4.30;;
59972;SDS011;55298;-36.624;-64.282;2023-03-14T06:38:29;4.90;;;4.50;;
59972;SDS011;55298;-36.624;-64.282;2023-03-14T06:41:00;4.25;;;3.95;;
59972;SDS011;55298;-36.624;-64.282;2023-03-14T06:43:31;4.72;;;4.32;;
59972;SDS011;55298;-36.624;-64.282;2023-03-14T06:45:58;4.70;;;4.30;;
59972;SDS011;55298;-36.624;-64.282;2023-03-14T06:48:26;4.40;;;4.10;;
59972;SDS011;55298;-36.624;-64.282;2023-03-14T06:50:56;5.05;;;4.65;;
59972;SDS011;55298;-36.624;-64.282;2023-03-14T06:53:23;4.82;;;4.53;;
59972;SDS011;55298;-36.624;-64.282;2023-03-14T06:55:51;5.43;;;5.03;;
59972;SDS011;55298;-36.624;-64.282;2023-03-14T06:58:19;5.05;;;4.65;;
59972;SDS011;55298;-36.624;-64.282;2023-03-14T07:00:47;5.22;;;4.55;;
59972;SDS011;55298;-36.624;-64.282;2023-03-14T07:03:15;6.00;;;5.60;;
59972;SDS011;55298;-36.624;-64.282;2023-03-14T07:05:42;6.10;;;5.70;;
59972;SDS011;55298;-36.624;-64.282;2023-03-14T07:08:10;5.93;;;5.40;;
59972;SDS011;55298;-36.624;-64.282;2023-03-14T07:10:38;6.25;;;5.75;;
59972;SDS011;55298;-36.624;-64.282;2023-03-14T07:13:06;6.13;;;5.70;;
59972;SDS011;55298;-36.624;-64.282;2023-03-14T07:15:33;6.10;;;5.68;;
59972;SDS011;55298;-36.624;-64.282;2023-03-14T07:18:01;6.93;;;6.32;;
59972;SDS011;55298;-36.624;-64.282;2023-03-14T07:20:29;5.80;;;5.40;;
59972;SDS011;55298;-36.624;-64.282;2023-03-14T07:22:58;5.95;;;5.45;;
59972;SDS011;55298;-36.624;-64.282;2023-03-14T07:25:28;6.65;;;5.85;;
59972;SDS011;55298;-36.624;-64.282;2023-03-14T07:27:56;5.82;;;5.32;;
59972;SDS011;55298;-36.624;-64.282;2023-03-14T07:30:24;7.03;;;6.35;;
59972;SDS011;55298;-36.624;-64.282;2023-03-14T07:32:52;5.75;;;5.35;;
59972;SDS011;55298;-36.624;-64.282;2023-03-14T07:35:19;6.35;;;5.85;;
59972;SDS011;55298;-36.624;-64.282;2023-03-14T07:37:47;6.30;;;5.78;;
59972;SDS011;55298;-36.624;-64.282;2023-03-14T07:40:14;6.13;;;5.68;;
59972;SDS011;55298;-36.624;-64.282;2023-03-14T07:42:42;5.45;;;5.15;;
59972;SDS011;55298;-36.624;-64.282;2023-03-14T07:45:10;5.50;;;5.10;;
59972;SDS011;55298;-36.624;-64.282;2023-03-14T07:47:38;7.15;;;6.45;;
59972;SDS011;55298;-36.624;-64.282;2023-03-14T07:50:06;6.15;;;5.75;;
59972;SDS011;55298;-36.624;-64.282;2023-03-14T07:52:34;5.88;;;5.47;;
59972;SDS011;55298;-36.624;-64.282;2023-03-14T07:55:02;5.88;;;5.38;;
59972;SDS011;55298;-36.624;-64.282;2023-03-14T07:57:31;7.25;;;6.65;;
59972;SDS011;55298;-36.624;-64.282;2023-03-14T07:59:59;6.50;;;5.90;;
59972;SDS011;55298;-36.624;-64.282;2023-03-14T08:02:26;6.43;;;5.95;;
59972;SDS011;55298;-36.624;-64.282;2023-03-14T08:04:54;7.63;;;7.03;;
59972;SDS011;55298;-36.624;-64.282;2023-03-14T08:07:22;6.47;;;5.97;;
59972;SDS011;55298;-36.624;-64.282;2023-03-14T08:09:49;8.00;;;7.30;;
59972;SDS011;55298;-36.624;-64.282;2023-03-14T08:12:17;7.63;;;6.93;;
59972;SDS011;55298;-36.624;-64.282;2023-03-14T08:14:45;7.28;;;6.55;;
59972;SDS011;55298;-36.624;-64.282;2023-03-14T08:17:13;8.52;;;7.30;;
59972;SDS011;55298;-36.624;-64.282;2023-03-14T08:19:41;7.50;;;6.85;;
59972;SDS011;55298;-36.624;-64.282;2023-03-14T08:22:09;6.63;;;6.13;;
59972;SDS011;55298;-36.624;-64.282;2023-03-14T08:24:37;6.88;;;6.35;;
59972;SDS011;55298;-36.624;-64.282;2023-03-14T08:27:04;6.40;;;5.90;;
59972;SDS011;55298;-36.624;-64.282;2023-03-14T08:29:32;9.10;;;8.23;;
59972;SDS011;55298;-36.624;-64.282;2023-03-14T08:32:00;7.00;;;6.40;;
59972;SDS011;55298;-36.624;-64.282;2023-03-14T08:34:27;8.02;;;7.43;;
59972;SDS011;55298;-36.624;-64.282;2023-03-14T08:36:55;8.52;;;7.82;;
59972;SDS011;55298;-36.624;-64.282;2023-03-14T08:39:23;21.75;;;19.63;;
59972;SDS011;55298;-36.624;-64.282;2023-03-14T08:41:50;9.93;;;8.13;;
59972;SDS011;55298;-36.624;-64.282;2023-03-14T08:44:18;13.02;;;9.10;;
59972;SDS011;55298;-36.624;-64.282;2023-03-14T08:46:46;7.78;;;6.97;;
59972;SDS011;55298;-36.624;-64.282;2023-03-14T08:49:13;8.15;;;7.38;;
59972;SDS011;55298;-36.624;-64.282;2023-03-14T08:51:41;6.03;;;5.53;;
59972;SDS011;55298;-36.624;-64.282;2023-03-14T08:54:10;7.40;;;6.80;;
59972;SDS011;55298;-36.624;-64.282;2023-03-14T08:56:37;7.28;;;6.57;;
59972;SDS011;55298;-36.624;-64.282;2023-03-14T08:59:05;7.78;;;7.05;;
59972;SDS011;55298;-36.624;-64.282;2023-03-14T09:01:33;7.13;;;6.53;;
59972;SDS011;55298;-36.624;-64.282;2023-03-14T09:04:01;7.00;;;6.43;;
59972;SDS011;55298;-36.624;-64.282;2023-03-14T09:06:29;7.05;;;6.32;;
59972;SDS011;55298;-36.624;-64.282;2023-03-14T09:08:56;17.05;;;8.48;;
59972;SDS011;55298;-36.624;-64.282;2023-03-14T09:11:24;7.60;;;6.38;;
59972;SDS011;55298;-36.624;-64.282;2023-03-14T09:13:52;7.00;;;6.30;;
59972;SDS011;55298;-36.624;-64.282;2023-03-14T09:16:19;9.55;;;6.93;;
59972;SDS011;55298;-36.624;-64.282;2023-03-14T09:18:47;7.82;;;7.13;;
59972;SDS011;55298;-36.624;-64.282;2023-03-14T09:21:15;9.55;;;8.68;;
59972;SDS011;55298;-36.624;-64.282;2023-03-14T09:23:42;9.82;;;8.88;;
59972;SDS011;55298;-36.624;-64.282;2023-03-14T09:26:11;7.82;;;7.15;;
59972;SDS011;55298;-36.624;-64.282;2023-03-14T09:28:39;6.72;;;6.20;;
59972;SDS011;55298;-36.624;-64.282;2023-03-14T09:31:07;14.07;;;8.75;;
59972;SDS011;55298;-36.624;-64.282;2023-03-14T09:33:36;7.75;;;7.05;;
59972;SDS011;55298;-36.624;-64.282;2023-03-14T09:36:04;8.15;;;7.35;;
59972;SDS011;55298;-36.624;-64.282;2023-03-14T09:38:32;8.00;;;7.20;;
59972;SDS011;55298;-36.624;-64.282;2023-03-14T09:41:01;12.20;;;7.15;;
59972;SDS011;55298;-36.624;-64.282;2023-03-14T09:43:38;10.73;;;8.88;;
59972;SDS011;55298;-36.624;-64.282;2023-03-14T09:46:08;9.88;;;7.93;;
59972;SDS011;55298;-36.624;-64.282;2023-03-14T09:48:37;8.75;;;7.85;;
59972;SDS011;55298;-36.624;-64.282;2023-03-14T09:51:11;9.38;;;8.48;;
59972;SDS011;55298;-36.624;-64.282;2023-03-14T09:53:43;11.18;;;9.02;;
59972;SDS011;55298;-36.624;-64.282;2023-03-14T09:56:18;10.80;;;8.57;;
59972;SDS011;55298;-36.624;-64.282;2023-03-14T09:58:53;12.55;;;8.27;;
59972;SDS011;55298;-36.624;-64.282;2023-03-14T10:01:26;12.35;;;10.57;;
59972;SDS011;55298;-36.624;-64.282;2023-03-14T10:04:00;12.15;;;10.25;;
59972;SDS011;55298;-36.624;-64.282;2023-03-14T10:06:33;12.07;;;10.30;;
59972;SDS011;55298;-36.624;-64.282;2023-03-14T10:09:02;11.38;;;10.25;;
59972;SDS011;55298;-36.624;-64.282;2023-03-14T10:11:31;14.60;;;10.90;;
59972;SDS011;55298;-36.624;-64.282;2023-03-14T10:14:05;15.55;;;14.15;;
59972;SDS011;55298;-36.624;-64.282;2023-03-14T10:16:39;14.23;;;12.82;;
59972;SDS011;55298;-36.624;-64.282;2023-03-14T10:19:12;11.07;;;8.98;;
59972;SDS011;55298;-36.624;-64.282;2023-03-14T10:21:44;9.75;;;8.10;;
59972;SDS011;55298;-36.624;-64.282;2023-03-14T10:24:27;8.80;;;7.97;;
59972;SDS011;55298;-36.624;-64.282;2023-03-14T10:27:03;18.48;;;9.57;;
59972;SDS011;55298;-36.624;-64.282;2023-03-14T10:29:33;9.10;;;8.10;;
59972;SDS011;55298;-36.624;-64.282;2023-03-14T10:32:19;8.98;;;7.35;;
59972;SDS011;55298;-36.624;-64.282;2023-03-14T10:35:17;10.45;;;9.05;;
59972;SDS011;55298;-36.624;-64.282;2023-03-14T10:37:55;14.05;;;9.52;;
59972;SDS011;55298;-36.624;-64.282;2023-03-14T10:40:30;17.58;;;10.38;;
59972;SDS011;55298;-36.624;-64.282;2023-03-14T10:43:05;30.92;;;22.08;;
59972;SDS011;55298;-36.624;-64.282;2023-03-14T10:45:42;12.02;;;9.50;;
59972;SDS011;55298;-36.624;-64.282;2023-03-14T10:48:21;14.82;;;11.02;;
59972;SDS011;55298;-36.624;-64.282;2023-03-14T10:51:02;13.60;;;12.02;;
59972;SDS011;55298;-36.624;-64.282;2023-03-14T10:56:23;19.00;;;12.70;;
59972;SDS011;55298;-36.624;-64.282;2023-03-14T10:58:56;18.97;;;12.17;;
59972;SDS011;55298;-36.624;-64.282;2023-03-14T11:01:37;19.45;;;14.80;;
59972;SDS011;55298;-36.624;-64.282;2023-03-14T11:10:14;11.23;;;9.93;;
59972;SDS011;55298;-36.624;-64.282;2023-03-14T11:13:17;11.77;;;10.55;;
59972;SDS011;55298;-36.624;-64.282;2023-03-14T11:16:02;13.75;;;9.00;;
59972;SDS011;55298;-36.624;-64.282;2023-03-14T11:19:08;17.10;;;11.45;;
59972;SDS011;55298;-36.624;-64.282;2023-03-14T11:21:59;12.15;;;10.98;;
59972;SDS011;55298;-36.624;-64.282;2023-03-14T11:25:04;16.65;;;12.80;;
59972;SDS011;55298;-36.624;-64.282;2023-03-14T11:27:51;20.77;;;14.13;;
59972;SDS011;55298;-36.624;-64.282;2023-03-14T11:30:50;14.70;;;13.15;;
59972;SDS011;55298;-36.624;-64.282;2023-03-14T11:33:29;14.55;;;11.07;;
59972;SDS011;55298;-36.624;-64.282;2023-03-14T11:36:07;10.25;;;9.25;;
59972;SDS011;55298;-36.624;-64.282;2023-03-14T11:38:41;12.75;;;8.65;;
59972;SDS011;55298;-36.624;-64.282;2023-03-14T11:41:19;10.43;;;9.43;;
59972;SDS011;55298;-36.624;-64.282;2023-03-14T11:43:57;13.07;;;10.90;;
59972;SDS011;55298;-36.624;-64.282;2023-03-14T11:46:34;14.07;;;12.20;;
59972;SDS011;55298;-36.624;-64.282;2023-03-14T11:52:09;17.42;;;10.60;;
59972;SDS011;55298;-36.624;-64.282;2023-03-14T11:55:05;14.43;;;12.18;;
59972;SDS011;55298;-36.624;-64.282;2023-03-14T11:57:42;15.75;;;11.63;;
59972;SDS011;55298;-36.624;-64.282;2023-03-14T12:00:18;10.45;;;9.02;;
59972;SDS011;55298;-36.624;-64.282;2023-03-14T12:05:50;14.88;;;10.32;;
59972;SDS011;55298;-36.624;-64.282;2023-03-14T12:14:00;9.93;;;8.00;;
59972;SDS011;55298;-36.624;-64.282;2023-03-14T12:16:32;8.68;;;7.85;;
59972;SDS011;55298;-36.624;-64.282;2023-03-14T12:21:58;12.32;;;6.78;;
59972;SDS011;55298;-36.624;-64.282;2023-03-14T12:24:36;6.93;;;6.30;;
59972;SDS011;55298;-36.624;-64.282;2023-03-14T12:27:12;6.32;;;5.78;;
59972;SDS011;55298;-36.624;-64.282;2023-03-14T12:30:01;8.27;;;7.47;;
59972;SDS011;55298;-36.624;-64.282;2023-03-14T12:32:37;10.77;;;7.43;;
59972;SDS011;55298;-36.624;-64.282;2023-03-14T12:37:52;12.43;;;10.18;;
59972;SDS011;55298;-36.624;-64.282;2023-03-14T12:40:30;13.90;;;9.05;;
59972;SDS011;55298;-36.624;-64.282;2023-03-14T12:43:02;9.82;;;8.93;;
59972;SDS011;55298;-36.624;-64.282;2023-03-14T12:46:06;13.85;;;12.45;;
59972;SDS011;55298;-36.624;-64.282;2023-03-14T12:48:44;9.93;;;7.75;;
59972;SDS011;55298;-36.624;-64.282;2023-03-14T12:51:41;9.63;;;8.73;;
59972;SDS011;55298;-36.624;-64.282;2023-03-14T12:54:20;8.52;;;6.70;;
59972;SDS011;55298;-36.624;-64.282;2023-03-14T12:57:06;8.32;;;6.20;;
59972;SDS011;55298;-36.624;-64.282;2023-03-14T12:59:50;7.28;;;6.53;;
59972;SDS011;55298;-36.624;-64.282;2023-03-14T13:02:28;8.23;;;6.30;;
59972;SDS011;55298;-36.624;-64.282;2023-03-14T13:05:12;9.13;;;5.57;;
59972;SDS011;55298;-36.624;-64.282;2023-03-14T13:08:02;7.18;;;5.88;;
59972;SDS011;55298;-36.624;-64.282;2023-03-14T13:10:39;4.00;;;3.63;;
59972;SDS011;55298;-36.624;-64.282;2023-03-14T13:13:20;6.28;;;3.97;;
59972;SDS011;55298;-36.624;-64.282;2023-03-14T13:15:56;4.80;;;3.28;;
59972;SDS011;55298;-36.624;-64.282;2023-03-14T13:18:36;5.55;;;3.30;;
59972;SDS011;55298;-36.624;-64.282;2023-03-14T13:23:55;5.90;;;4.55;;
59972;SDS011;55298;-36.624;-64.282;2023-03-14T13:26:42;4.97;;;3.40;;
59972;SDS011;55298;-36.624;-64.282;2023-03-14T13:29:16;3.63;;;3.20;;
59972;SDS011;55298;-36.624;-64.282;2023-03-14T13:31:48;3.88;;;3.58;;
59972;SDS011;55298;-36.624;-64.282;2023-03-14T13:34:19;3.88;;;3.40;;
59972;SDS011;55298;-36.624;-64.282;2023-03-14T13:36:51;3.72;;;3.05;;
59972;SDS011;55298;-36.624;-64.282;2023-03-14T13:39:22;7.65;;;3.97;;
59972;SDS011;55298;-36.624;-64.282;2023-03-14T13:41:54;10.80;;;4.10;;
59972;SDS011;55298;-36.624;-64.282;2023-03-14T13:44:31;7.68;;;3.53;;
59972;SDS011;55298;-36.624;-64.282;2023-03-14T13:47:03;8.35;;;3.90;;
59972;SDS011;55298;-36.624;-64.282;2023-03-14T13:49:42;4.55;;;3.60;;
59972;SDS011;55298;-36.624;-64.282;2023-03-14T13:55:13;5.60;;;3.88;;
59972;SDS011;55298;-36.624;-64.282;2023-03-14T13:57:44;10.55;;;5.38;;
59972;SDS011;55298;-36.624;-64.282;2023-03-14T14:00:21;2.90;;;2.60;;
59972;SDS011;55298;-36.624;-64.282;2023-03-14T14:02:53;3.30;;;3.10;;
59972;SDS011;55298;-36.624;-64.282;2023-03-14T14:05:26;3.40;;;2.90;;
59972;SDS011;55298;-36.624;-64.282;2023-03-14T14:07:57;6.25;;;2.50;;
59972;SDS011;55298;-36.624;-64.282;2023-03-14T14:10:25;3.67;;;3.13;;
59972;SDS011;55298;-36.624;-64.282;2023-03-14T14:13:00;3.67;;;2.70;;
59972;SDS011;55298;-36.624;-64.282;2023-03-14T14:15:31;2.80;;;2.10;;
59972;SDS011;55298;-36.624;-64.282;2023-03-14T14:18:07;4.05;;;2.25;;
59972;SDS011;55298;-36.624;-64.282;2023-03-14T14:20:41;2.58;;;1.80;;
59972;SDS011;55298;-36.624;-64.282;2023-03-14T14:23:14;4.05;;;2.30;;
59972;SDS011;55298;-36.624;-64.282;2023-03-14T14:25:52;3.20;;;2.90;;
59972;SDS011;55298;-36.624;-64.282;2023-03-14T14:28:28;2.60;;;2.40;;
59972;SDS011;55298;-36.624;-64.282;2023-03-14T14:33:57;3.15;;;2.40;;
59972;SDS011;55298;-36.624;-64.282;2023-03-14T14:36:36;2.53;;;2.33;;
59972;SDS011;55298;-36.624;-64.282;2023-03-14T14:41:49;3.58;;;2.70;;
59972;SDS011;55298;-36.624;-64.282;2023-03-14T14:44:28;5.50;;;4.85;;
59972;SDS011;55298;-36.624;-64.282;2023-03-14T14:47:02;4.13;;;2.30;;
59972;SDS011;55298;-36.624;-64.282;2023-03-14T14:49:32;2.92;;;2.00;;
59972;SDS011;55298;-36.624;-64.282;2023-03-14T14:52:02;3.50;;;1.83;;
59972;SDS011;55298;-36.624;-64.282;2023-03-14T14:54:37;13.13;;;11.80;;
59972;SDS011;55298;-36.624;-64.282;2023-03-14T14:57:19;4.03;;;2.50;;
59972;SDS011;55298;-36.624;-64.282;2023-03-14T14:59:50;7.82;;;3.40;;
59972;SDS011;55298;-36.624;-64.282;2023-03-14T15:05:17;4.18;;;2.20;;
59972;SDS011;55298;-36.624;-64.282;2023-03-14T15:07:50;4.10;;;2.53;;
59972;SDS011;55298;-36.624;-64.282;2023-03-14T15:10:20;2.53;;;2.30;;
59972;SDS011;55298;-36.624;-64.282;2023-03-14T15:12:50;3.97;;;2.50;;
59972;SDS011;55298;-36.624;-64.282;2023-03-14T15:15:18;7.63;;;4.28;;
59972;SDS011;55298;-36.624;-64.282;2023-03-14T15:17:46;3.53;;;2.40;;